sensor_id;sensor_type;location;lat;lon;timestamp;temperature;humidity
37086;DHT22;23001;45.952;12.676;2023-06-26T00:02:19;23.20;99.90
37086;DHT22;23001;45.952;12.676;2023-06-26T00:04:44;23.20;99.90
37086;DHT22;23001;45.952;12.676;2023-06-26T00:07:12;23.10;99.90
37086;DHT22;23001;45.952;12.676;2023-06-26T00:09:38;23.10;99.90
37086;DHT22;23001;45.952;12.676;2023-06-26T00:12:04;23.20;99.90
37086;DHT22;23001;45.952;12.676;2023-06-26T00:14:43;23.30;99.90
37086;DHT22;23001;45.952;12.676;2023-06-26T00:17:12;23.20;99.90
37086;DHT22;23001;45.952;12.676;2023-06-26T00:19:37;23.20;99.90
37086;DHT22;23001;45.952;12.676;2023-06-26T00:22:03;23.20;99.90
37086;DHT22;23001;45.952;12.676;2023-06-26T00:24:29;23.20;99.90
37086;DHT22;23001;45.952;12.676;2023-06-26T00:27:03;23.30;99.90
37086;DHT22;23001;45.952;12.676;2023-06-26T00:29:29;23.30;99.90
37086;DHT22;23001;45.952;12.676;2023-06-26T00:31:55;23.20;99.90
37086;DHT22;23001;45.952;12.676;2023-06-26T00:34:26;23.20;99.90
37086;DHT22;23001;45.952;12.676;2023-06-26T00:36:51;23.20;99.90
37086;DHT22;23001;45.952;12.676;2023-06-26T00:39:19;23.20;99.90
37086;DHT22;23001;45.952;12.676;2023-06-26T00:41:45;23.20;99.90
37086;DHT22;23001;45.952;12.676;2023-06-26T00:44:11;23.20;99.90
37086;DHT22;23001;45.952;12.676;2023-06-26T00:46:39;23.30;99.90
37086;DHT22;23001;45.952;12.676;2023-06-26T00:49:08;23.30;99.90
37086;DHT22;23001;45.952;12.676;2023-06-26T00:51:34;23.20;99.90
37086;DHT22;23001;45.952;12.676;2023-06-26T00:53:59;23.20;99.90
37086;DHT22;23001;45.952;12.676;2023-06-26T00:56:25;23.20;99.90
37086;DHT22;23001;45.952;12.676;2023-06-26T00:58:51;23.20;99.90
37086;DHT22;23001;45.952;12.676;2023-06-26T01:01:17;23.20;99.90
37086;DHT22;23001;45.952;12.676;2023-06-26T01:03:43;23.10;99.90
37086;DHT22;23001;45.952;12.676;2023-06-26T01:06:11;23.10;99.90
37086;DHT22;23001;45.952;12.676;2023-06-26T01:08:41;23.10;99.80
37086;DHT22;23001;45.952;12.676;2023-06-26T01:11:09;23.10;99.80
37086;DHT22;23001;45.952;12.676;2023-06-26T01:13:35;23.20;99.90
37086;DHT22;23001;45.952;12.676;2023-06-26T01:16:01;23.20;99.40
37086;DHT22;23001;45.952;12.676;2023-06-26T01:18:28;23.20;99.50
37086;DHT22;23001;45.952;12.676;2023-06-26T01:20:54;23.20;99.40
37086;DHT22;23001;45.952;12.676;2023-06-26T01:23:24;23.20;99.40
37086;DHT22;23001;45.952;12.676;2023-06-26T01:31:47;23.30;99.00
37086;DHT22;23001;45.952;12.676;2023-06-26T01:40:27;23.30;98.50
37086;DHT22;23001;45.952;12.676;2023-06-26T02:09:09;23.10;99.40
37086;DHT22;23001;45.952;12.676;2023-06-26T02:39:22;23.00;99.50
37086;DHT22;23001;45.952;12.676;2023-06-26T02:41:50;22.90;99.50
37086;DHT22;23001;45.952;12.676;2023-06-26T02:44:16;23.00;99.40
37086;DHT22;23001;45.952;12.676;2023-06-26T03:05:42;22.70;99.90
37086;DHT22;23001;45.952;12.676;2023-06-26T03:08:10;22.50;99.90
37086;DHT22;23001;45.952;12.676;2023-06-26T03:10:39;22.50;99.90
37086;DHT22;23001;45.952;12.676;2023-06-26T03:13:05;22.40;99.90
37086;DHT22;23001;45.952;12.676;2023-06-26T03:21:32;22.40;99.90
37086;DHT22;23001;45.952;12.676;2023-06-26T03:24:03;22.40;99.90
37086;DHT22;23001;45.952;12.676;2023-06-26T03:26:29;22.30;99.90
37086;DHT22;23001;45.952;12.676;2023-06-26T03:28:54;22.30;99.90
37086;DHT22;23001;45.952;12.676;2023-06-26T03:31:20;22.30;99.90
37086;DHT22;23001;45.952;12.676;2023-06-26T03:33:46;22.30;99.90
37086;DHT22;23001;45.952;12.676;2023-06-26T03:36:12;22.30;99.90
37086;DHT22;23001;45.952;12.676;2023-06-26T03:38:37;22.20;99.90
37086;DHT22;23001;45.952;12.676;2023-06-26T03:41:03;22.20;99.90
37086;DHT22;23001;45.952;12.676;2023-06-26T03:43:29;22.20;99.90
37086;DHT22;23001;45.952;12.676;2023-06-26T03:45:55;22.20;99.90
37086;DHT22;23001;45.952;12.676;2023-06-26T03:54:54;22.50;99.90
37086;DHT22;23001;45.952;12.676;2023-06-26T03:57:22;22.40;99.90
37086;DHT22;23001;45.952;12.676;2023-06-26T04:00:07;22.30;99.90
37086;DHT22;23001;45.952;12.676;2023-06-26T04:02:39;22.20;99.90
37086;DHT22;23001;45.952;12.676;2023-06-26T04:05:05;22.30;99.90
37086;DHT22;23001;45.952;12.676;2023-06-26T04:07:31;22.40;99.90
37086;DHT22;23001;45.952;12.676;2023-06-26T04:09:57;22.40;99.90
37086;DHT22;23001;45.952;12.676;2023-06-26T04:12:25;22.40;99.90
37086;DHT22;23001;45.952;12.676;2023-06-26T04:18:13;22.30;99.90
37086;DHT22;23001;45.952;12.676;2023-06-26T04:30:14;22.50;99.90
37086;DHT22;23001;45.952;12.676;2023-06-26T04:42:30;22.60;99.90
37086;DHT22;23001;45.952;12.676;2023-06-26T04:44:56;22.70;99.90
37086;DHT22;23001;45.952;12.676;2023-06-26T04:57:12;22.90;99.90
37086;DHT22;23001;45.952;12.676;2023-06-26T05:05:50;23.00;99.90
37086;DHT22;23001;45.952;12.676;2023-06-26T05:08:39;23.00;99.90
37086;DHT22;23001;45.952;12.676;2023-06-26T05:11:04;23.10;99.90
37086;DHT22;23001;45.952;12.676;2023-06-26T05:13:36;23.20;99.90
37086;DHT22;23001;45.952;12.676;2023-06-26T06:03:57;28.30;95.30
37086;DHT22;23001;45.952;12.676;2023-06-26T07:02:25;30.70;90.60
37086;DHT22;23001;45.952;12.676;2023-06-26T07:08:18;30.50;90.50
37086;DHT22;23001;45.952;12.676;2023-06-26T07:11:00;30.60;90.70
37086;DHT22;23001;45.952;12.676;2023-06-26T10:19:09;30.80;90.60
37086;DHT22;23001;45.952;12.676;2023-06-26T10:21:37;30.80;91.70
37086;DHT22;23001;45.952;12.676;2023-06-26T10:24:27;31.10;90.60
37086;DHT22;23001;45.952;12.676;2023-06-26T10:33:40;30.70;90.60
37086;DHT22;23001;45.952;12.676;2023-06-26T10:58:48;31.10;90.60
37086;DHT22;23001;45.952;12.676;2023-06-26T11:01:28;31.20;90.00
37086;DHT22;23001;45.952;12.676;2023-06-26T11:14:01;31.30;90.40
37086;DHT22;23001;45.952;12.676;2023-06-26T11:23:10;31.10;90.10
37086;DHT22;23001;45.952;12.676;2023-06-26T11:26:17;31.40;90.20
37086;DHT22;23001;45.952;12.676;2023-06-26T11:50:49;31.40;90.60
37086;DHT22;23001;45.952;12.676;2023-06-26T11:56:51;31.80;89.40
37086;DHT22;23001;45.952;12.676;2023-06-26T11:59:23;31.60;91.00
37086;DHT22;23001;45.952;12.676;2023-06-26T12:26:41;32.10;90.70
37086;DHT22;23001;45.952;12.676;2023-06-26T12:29:20;31.90;90.70
37086;DHT22;23001;45.952;12.676;2023-06-26T12:32:18;31.90;90.70
37086;DHT22;23001;45.952;12.676;2023-06-26T12:35:04;31.90;90.60
37086;DHT22;23001;45.952;12.676;2023-06-26T12:44:03;32.00;90.20
37086;DHT22;23001;45.952;12.676;2023-06-26T12:49:52;32.40;89.40
37086;DHT22;23001;45.952;12.676;2023-06-26T12:52:21;32.00;89.70
37086;DHT22;23001;45.952;12.676;2023-06-26T12:55:06;31.80;88.30
37086;DHT22;23001;45.952;12.676;2023-06-26T13:00:54;31.80;90.30
37086;DHT22;23001;45.952;12.676;2023-06-26T13:07:07;32.20;88.50
37086;DHT22;23001;45.952;12.676;2023-06-26T13:09:38;32.20;90.50
37086;DHT22;23001;45.952;12.676;2023-06-26T13:12:16;32.00;89.70
37086;DHT22;23001;45.952;12.676;2023-06-26T13:14:59;32.10;88.10
37086;DHT22;23001;45.952;12.676;2023-06-26T13:17:54;32.10;89.20
37086;DHT22;23001;45.952;12.676;2023-06-26T13:20:38;32.10;89.40
37086;DHT22;23001;45.952;12.676;2023-06-26T13:23:24;32.10;88.70
37086;DHT22;23001;45.952;12.676;2023-06-26T13:25:59;32.00;88.30
37086;DHT22;23001;45.952;12.676;2023-06-26T13:28:24;32.10;90.00
37086;DHT22;23001;45.952;12.676;2023-06-26T13:33:29;32.10;89.90
37086;DHT22;23001;45.952;12.676;2023-06-26T13:35:57;31.90;90.20
37086;DHT22;23001;45.952;12.676;2023-06-26T13:38:26;31.80;90.50
37086;DHT22;23001;45.952;12.676;2023-06-26T13:40:54;31.80;90.50
37086;DHT22;23001;45.952;12.676;2023-06-26T13:43:24;32.00;90.80
37086;DHT22;23001;45.952;12.676;2023-06-26T13:45:53;32.10;90.30
37086;DHT22;23001;45.952;12.676;2023-06-26T13:48:30;32.00;90.90
37086;DHT22;23001;45.952;12.676;2023-06-26T13:50:56;32.10;90.60
37086;DHT22;23001;45.952;12.676;2023-06-26T13:53:25;32.10;90.90
37086;DHT22;23001;45.952;12.676;2023-06-26T13:56:28;32.10;90.30
37086;DHT22;23001;45.952;12.676;2023-06-26T13:59:29;32.20;90.50
37086;DHT22;23001;45.952;12.676;2023-06-26T14:11:34;32.10;91.40
37086;DHT22;23001;45.952;12.676;2023-06-26T14:13:59;31.90;91.30
37086;DHT22;23001;45.952;12.676;2023-06-26T14:16:25;32.00;90.30
37086;DHT22;23001;45.952;12.676;2023-06-26T14:18:54;32.00;90.50
37086;DHT22;23001;45.952;12.676;2023-06-26T14:24:32;31.80;90.20
37086;DHT22;23001;45.952;12.676;2023-06-26T15:46:30;31.90;90.60
37086;DHT22;23001;45.952;12.676;2023-06-26T15:48:56;31.80;91.30
37086;DHT22;23001;45.952;12.676;2023-06-26T15:51:25;31.80;91.30
37086;DHT22;23001;45.952;12.676;2023-06-26T15:53:56;31.80;92.00
37086;DHT22;23001;45.952;12.676;2023-06-26T15:56:46;31.90;91.90
37086;DHT22;23001;45.952;12.676;2023-06-26T15:59:23;32.10;91.50
37086;DHT22;23001;45.952;12.676;2023-06-26T16:01:52;31.90;91.50
37086;DHT22;23001;45.952;12.676;2023-06-26T16:04:19;31.80;91.90
37086;DHT22;23001;45.952;12.676;2023-06-26T16:06:49;31.70;92.20
37086;DHT22;23001;45.952;12.676;2023-06-26T16:09:19;31.80;92.10
37086;DHT22;23001;45.952;12.676;2023-06-26T16:21:15;31.80;91.70
37086;DHT22;23001;45.952;12.676;2023-06-26T16:23:41;31.80;92.20
37086;DHT22;23001;45.952;12.676;2023-06-26T16:26:07;31.80;91.50
37086;DHT22;23001;45.952;12.676;2023-06-26T16:28:50;31.70;91.40
37086;DHT22;23001;45.952;12.676;2023-06-26T16:31:17;31.60;91.80
37086;DHT22;23001;45.952;12.676;2023-06-26T16:33:51;31.60;92.20
37086;DHT22;23001;45.952;12.676;2023-06-26T16:36:23;31.60;92.10
37086;DHT22;23001;45.952;12.676;2023-06-26T16:38:56;31.50;91.80
37086;DHT22;23001;45.952;12.676;2023-06-26T16:41:43;31.40;92.00
37086;DHT22;23001;45.952;12.676;2023-06-26T16:44:22;31.60;91.60
37086;DHT22;23001;45.952;12.676;2023-06-26T16:46:47;31.40;92.10
37086;DHT22;23001;45.952;12.676;2023-06-26T16:58:26;31.40;92.20
37086;DHT22;23001;45.952;12.676;2023-06-26T17:00:53;31.30;92.20
37086;DHT22;23001;45.952;12.676;2023-06-26T17:09:46;31.20;92.60
37086;DHT22;23001;45.952;12.676;2023-06-26T17:18:13;31.20;92.50
37086;DHT22;23001;45.952;12.676;2023-06-26T17:26:37;31.10;92.10
37086;DHT22;23001;45.952;12.676;2023-06-26T17:29:28;31.10;92.40
37086;DHT22;23001;45.952;12.676;2023-06-26T17:32:08;31.00;92.70
37086;DHT22;23001;45.952;12.676;2023-06-26T17:37:34;30.80;93.30
37086;DHT22;23001;45.952;12.676;2023-06-26T17:40:03;30.70;93.50
37086;DHT22;23001;45.952;12.676;2023-06-26T17:45:36;30.70;93.80
37086;DHT22;23001;45.952;12.676;2023-06-26T17:48:03;30.70;93.80
37086;DHT22;23001;45.952;12.676;2023-06-26T17:50:29;30.50;94.00
37086;DHT22;23001;45.952;12.676;2023-06-26T17:53:00;30.50;94.10
37086;DHT22;23001;45.952;12.676;2023-06-26T17:55:34;30.50;94.20
